createdAt,value
2022-08-30T00:58:32.134Z,101296.91
2022-08-30T01:15:21.524Z,101312.25
2022-08-30T01:18:50.829Z,101307.16
2022-08-30T01:36:52.788Z,101317.91
2022-08-30T01:39:50.653Z,101313.78
2022-08-30T01:42:52.810Z,101311.25
2022-08-30T01:45:53.074Z,101314.25
2022-08-30T01:54:51.054Z,101310.88
2022-08-30T01:57:25.034Z,101305.78
2022-08-30T02:05:52.160Z,101303.47
2022-08-30T02:08:20.589Z,101308.31
2022-08-30T02:10:53.323Z,101308.63
2022-08-30T02:13:53.033Z,101315.16
2022-08-30T02:23:06.059Z,101317.88
2022-08-30T02:32:19.173Z,101336.53
2022-08-30T02:34:53.546Z,101335.56
2022-08-30T02:37:54.411Z,101327.91
2022-08-30T02:40:51.609Z,101327.91
2022-08-30T02:49:50.480Z,101346.78
2022-08-30T02:52:25.934Z,101362.69
2022-08-30T02:54:56.272Z,101360.69
2022-08-30T03:08:53.709Z,101372.97
2022-08-30T03:11:52.874Z,101375.81
2022-08-30T03:14:21.371Z,101380.03
2022-08-30T03:16:52.892Z,101379.47
2022-08-30T03:19:53.655Z,101376.06
2022-08-30T03:22:52.361Z,101381.72
2022-08-30T03:25:24.325Z,101383.13
2022-08-30T03:27:52.973Z,101389.78
2022-08-30T03:40:12.405Z,101390.16
2022-08-30T03:42:52.311Z,101411.25
2022-08-30T03:45:55.115Z,101410.91
2022-08-30T03:48:53.965Z,101406.84
2022-08-30T03:58:22.149Z,101413.94
2022-08-30T04:00:53.738Z,101418.47
2022-08-30T04:06:52.468Z,101431.50
2022-08-30T04:09:26.946Z,101434.81
2022-08-30T04:11:58.206Z,101439.03
2022-08-30T04:18:53.078Z,101456.53
2022-08-30T04:24:53.147Z,101460.72
2022-08-30T04:30:53.110Z,101453.47
2022-08-30T04:40:53.726Z,101459.41
2022-08-30T04:46:09.046Z,101475.31
2022-08-30T04:48:53.017Z,101478.75
2022-08-30T04:51:51.714Z,101485.09
2022-08-30T04:57:07.652Z,101473.63
2022-08-30T04:59:56.811Z,101481.94
2022-08-30T05:05:56.285Z,101476.47
2022-08-30T05:11:55.591Z,101477.09
2022-08-30T05:17:24.940Z,101476.25
2022-08-30T05:23:08.272Z,101472.03
2022-08-30T05:25:54.996Z,101470.06
2022-08-30T05:28:26.046Z,101460.56
2022-08-30T05:30:54.805Z,101473.13
2022-08-30T05:36:58.307Z,101467.75
2022-08-30T05:39:52.535Z,101466.53
2022-08-30T05:42:23.806Z,101465.09
2022-08-30T05:44:55.596Z,101466.81
2022-08-30T05:50:57.597Z,101469.47
2022-08-30T05:53:31.932Z,101477.78
2022-08-30T05:56:53.558Z,101479.38
2022-08-30T05:59:24.607Z,101473.38
2022-08-30T06:01:59.407Z,101475.22
2022-08-30T06:04:55.372Z,101474.47
2022-08-30T06:07:53.677Z,101487.56
2022-08-30T06:10:25.021Z,101485.00
2022-08-30T06:12:54.853Z,101482.69
2022-08-30T06:15:55.233Z,101488.91
2022-08-30T06:18:28.715Z,101483.91
2022-08-30T06:21:33.300Z,101489.41
2022-08-30T06:24:02.301Z,101494.50
2022-08-30T06:29:25.123Z,101502.81
2022-08-30T06:32:02.021Z,101497.56
2022-08-30T06:34:54.792Z,101492.44
2022-08-30T06:43:28.425Z,101497.38
2022-08-30T06:45:57.203Z,101496.78
2022-08-30T06:48:25.563Z,101496.91
2022-08-30T06:50:58.010Z,101496.78
2022-08-30T06:56:58.677Z,101504.69
2022-08-30T07:02:55.537Z,101501.78
2022-08-30T07:05:24.983Z,101510.19
2022-08-30T07:13:56.349Z,101511.03
2022-08-30T07:16:24.845Z,101503.31
2022-08-30T07:18:59.540Z,101510.50
2022-08-30T07:21:54.778Z,101512.22
2022-08-30T07:27:56.226Z,101517.56
2022-08-30T07:34:27.414Z,101523.28
2022-08-30T07:37:05.558Z,101526.50
2022-08-30T07:40:06.359Z,101537.22
2022-08-30T07:42:57.259Z,101530.44
2022-08-30T07:49:45.500Z,101539.00
2022-08-30T07:52:59.998Z,101536.09
2022-08-30T08:05:32.351Z,101545.66
2022-08-30T08:08:57.405Z,101541.16
2022-08-30T08:11:33.293Z,101542.09
2022-08-30T08:14:03.191Z,101548.34
2022-08-30T08:22:58.970Z,101530.78
2022-08-30T08:25:28.280Z,101538.16
2022-08-30T08:28:26.538Z,101534.66
2022-08-30T08:30:57.697Z,101538.28
2022-08-30T08:33:25.783Z,101535.94
2022-08-30T08:35:57.837Z,101530.38
2022-08-30T08:38:26.358Z,101527.47
2022-08-30T08:41:07.668Z,101534.41
2022-08-30T08:43:58.264Z,101522.22
2022-08-30T08:46:55.437Z,101526.72
2022-08-30T08:49:25.902Z,101527.56
2022-08-30T08:52:24.649Z,101528.34
2022-08-30T08:55:27.477Z,101530.13
2022-08-30T08:57:56.043Z,101525.00
2022-08-30T09:00:27.575Z,101520.22
2022-08-30T09:03:05.265Z,101533.41
2022-08-30T09:06:25.694Z,101528.50
2022-08-30T09:08:58.014Z,101525.28
2022-08-30T09:11:56.673Z,101527.84
2022-08-30T09:14:57.001Z,101531.53
2022-08-30T09:17:27.421Z,101522.63
2022-08-30T09:19:55.790Z,101519.81
2022-08-30T09:22:53.934Z,101520.47
2022-08-30T09:28:28.813Z,101514.53
2022-08-30T09:31:12.423Z,101523.25
2022-08-30T09:34:10.081Z,101521.19
2022-08-30T09:36:57.031Z,101523.97
2022-08-30T09:39:34.439Z,101509.88
2022-08-30T09:42:54.667Z,101515.41
2022-08-30T09:45:57.039Z,101515.00
2022-08-30T09:48:30.765Z,101519.75
2022-08-30T09:51:58.061Z,101514.47
2022-08-30T09:54:20.001Z,101520.06
2022-08-30T09:57:33.933Z,101514.69
2022-08-30T10:03:56.439Z,101512.47
2022-08-30T10:06:55.777Z,101512.09
2022-08-30T10:10:02.191Z,101511.56
2022-08-30T10:12:59.370Z,101521.31
2022-08-30T10:15:55.868Z,101534.03
2022-08-30T10:19:02.561Z,101530.53
2022-08-30T10:22:00.248Z,101528.59
2022-08-30T10:25:08.252Z,101523.03
2022-08-30T10:27:56.286Z,101531.91
2022-08-30T10:30:29.394Z,101528.06
2022-08-30T10:33:28.678Z,101527.72
2022-08-30T10:36:04.273Z,101522.38
2022-08-30T10:38:59.871Z,101528.34
2022-08-30T10:42:29.821Z,101519.47
2022-08-30T10:51:04.801Z,101522.16
2022-08-30T10:53:58.993Z,101523.22
2022-08-30T10:56:30.525Z,101520.66
2022-08-30T10:59:01.497Z,101518.19
2022-08-30T11:01:57.928Z,101517.59
2022-08-30T11:05:03.250Z,101518.53
2022-08-30T11:07:38.601Z,101514.25
2022-08-30T11:10:28.625Z,101515.97
2022-08-30T11:13:30.646Z,101518.88
2022-08-30T11:16:05.675Z,101523.69
2022-08-30T11:18:45.183Z,101529.25
2022-08-30T11:21:56.270Z,101521.97
2022-08-30T11:24:30.408Z,101528.31
2022-08-30T11:29:47.975Z,101529.03
2022-08-30T11:32:59.131Z,101527.13
2022-08-30T11:36:01.406Z,101528.81
2022-08-30T11:38:31.383Z,101521.00
2022-08-30T11:40:59.900Z,101523.69
2022-08-30T11:43:59.830Z,101528.91
2022-08-30T11:46:28.334Z,101529.03
2022-08-30T11:49:00.763Z,101532.25
2022-08-30T11:56:28.186Z,101530.09
2022-08-30T11:59:27.014Z,101523.88
2022-08-30T12:02:28.615Z,101535.03
2022-08-30T12:05:31.610Z,101540.66
2022-08-30T12:12:27.336Z,101537.84
2022-08-30T12:15:29.508Z,101547.13
2022-08-30T12:18:18.893Z,101549.69
2022-08-30T12:20:53.928Z,101555.03
2022-08-30T12:23:25.173Z,101558.91
2022-08-30T12:26:13.682Z,101558.94
2022-08-30T12:28:44.620Z,101558.66
2022-08-30T12:31:17.399Z,101569.56
2022-08-30T12:33:54.652Z,101567.19
2022-08-30T12:36:54.317Z,101571.81
2022-08-30T12:39:34.101Z,101574.94
2022-08-30T12:42:20.092Z,101573.34
2022-08-30T12:44:59.697Z,101570.88
2022-08-30T12:47:53.662Z,101572.59
2022-08-30T12:51:00.141Z,101571.38
2022-08-30T12:53:41.726Z,101580.41
2022-08-30T12:56:21.225Z,101576.75
2022-08-30T12:58:59.734Z,101582.09
2022-08-30T13:01:33.353Z,101593.56
2022-08-30T13:04:19.687Z,101589.06
2022-08-30T13:07:02.635Z,101592.72
2022-08-30T13:09:35.578Z,101585.75
2022-08-30T13:12:11.241Z,101585.88
2022-08-30T13:14:43.525Z,101588.66
2022-08-30T13:17:32.117Z,101591.44
2022-08-30T13:20:22.711Z,101598.69
2022-08-30T13:23:11.740Z,101605.09
2022-08-30T13:25:43.145Z,101611.53
2022-08-30T13:28:15.043Z,101608.97
2022-08-30T13:30:43.444Z,101610.66
2022-08-30T13:33:12.826Z,101614.72
2022-08-30T13:35:44.267Z,101625.34
2022-08-30T13:38:12.579Z,101632.38
2022-08-30T13:40:42.489Z,101637.72
2022-08-30T13:43:11.419Z,101636.63
2022-08-30T13:45:41.444Z,101639.28
2022-08-30T13:48:14.676Z,101633.50
2022-08-30T13:50:46.364Z,101639.38
2022-08-30T13:53:51.790Z,101650.19
2022-08-30T13:56:05.015Z,101647.44
2022-08-30T13:58:33.954Z,101651.78
2022-08-30T14:02:07.063Z,101651.34
2022-08-30T14:04:29.960Z,101651.16
2022-08-30T14:07:16.767Z,101656.78
2022-08-30T14:10:30.335Z,101660.09
2022-08-30T14:13:02.602Z,101662.06
2022-08-30T14:15:36.160Z,101667.97
2022-08-30T14:18:08.658Z,101666.03
2022-08-30T14:20:38.397Z,101667.31
2022-08-30T14:23:10.174Z,101675.41
2022-08-30T14:25:42.441Z,101667.88
2022-08-30T14:28:14.769Z,101669.94
2022-08-30T14:30:45.038Z,101679.28
2022-08-30T14:33:14.455Z,101683.25
2022-08-30T14:35:43.257Z,101681.13
2022-08-30T14:42:04.213Z,101678.81
2022-08-30T14:44:54.775Z,101685.25
2022-08-30T14:53:09.960Z,101694.25
2022-08-30T14:55:38.358Z,101698.22
2022-08-30T14:58:08.008Z,101700.25
2022-08-30T15:00:36.854Z,101702.16
2022-08-30T15:03:05.712Z,101710.34
2022-08-30T15:05:34.397Z,101711.50
2022-08-30T15:08:02.601Z,101708.16
2022-08-30T15:10:31.620Z,101712.88
2022-08-30T15:13:00.624Z,101714.03
2022-08-30T15:15:34.106Z,101717.97
2022-08-30T15:18:03.263Z,101720.53
2022-08-30T15:20:32.298Z,101722.47
2022-08-30T15:23:26.300Z,101727.81
2022-08-30T15:25:57.527Z,101731.88
2022-08-30T15:28:25.364Z,101723.28
2022-08-30T15:30:54.228Z,101723.34
2022-08-30T15:33:58.621Z,101716.09
2022-08-30T15:36:28.992Z,101720.03
2022-08-30T15:38:58.136Z,101728.28
2022-08-30T15:41:26.834Z,101721.16
2022-08-30T15:43:58.325Z,101719.59
2022-08-30T15:46:33.055Z,101723.56
2022-08-30T15:49:23.069Z,101721.75
2022-08-30T15:51:54.202Z,101723.00
2022-08-30T15:54:24.830Z,101725.31
2022-08-30T15:56:59.966Z,101726.69
2022-08-30T15:59:30.336Z,101731.44
2022-08-30T16:01:58.909Z,101731.22
2022-08-30T16:04:27.747Z,101727.59
2022-08-30T16:06:56.324Z,101736.41
2022-08-30T16:09:25.591Z,101728.09
2022-08-30T16:11:58.644Z,101720.72
2022-08-30T16:14:32.973Z,101718.75
2022-08-30T16:17:01.448Z,101723.38
2022-08-30T16:19:29.812Z,101715.06
2022-08-30T16:21:58.784Z,101721.16
2022-08-30T16:24:27.139Z,101720.41
2022-08-30T16:26:56.066Z,101722.59
2022-08-30T16:29:24.555Z,101722.59
2022-08-30T16:31:54.399Z,101722.16
2022-08-30T16:34:25.923Z,101716.19
2022-08-30T16:36:54.757Z,101722.81
2022-08-30T16:39:23.819Z,101721.47
2022-08-30T16:48:09.272Z,101726.03
2022-08-30T16:51:11.082Z,101722.25
2022-08-30T16:53:59.760Z,101729.28
2022-08-30T16:56:30.286Z,101739.81
2022-08-30T16:59:02.822Z,101735.75
2022-08-30T17:01:35.775Z,101727.78
2022-08-30T17:04:06.099Z,101719.44
2022-08-30T17:06:38.679Z,101726.81
2022-08-30T17:09:25.753Z,101721.28
2022-08-30T17:11:58.626Z,101723.97
2022-08-30T17:14:30.250Z,101730.06
2022-08-30T17:17:00.851Z,101730.34
2022-08-30T17:19:30.520Z,101728.25
2022-08-30T17:21:59.234Z,101733.78
2022-08-30T17:24:28.480Z,101738.34
2022-08-30T17:26:58.302Z,101738.50
2022-08-30T17:29:27.214Z,101726.63
2022-08-30T17:31:56.118Z,101732.88
2022-08-30T17:34:29.334Z,101729.66
2022-08-30T17:36:59.888Z,101730.91
2022-08-30T17:39:29.655Z,101735.91
2022-08-30T17:41:58.737Z,101730.94
2022-08-30T17:44:31.629Z,101736.72
2022-08-30T17:47:01.037Z,101732.75
2022-08-30T17:49:31.207Z,101724.72
2022-08-30T17:52:28.489Z,101727.16
2022-08-30T17:54:57.023Z,101728.25
2022-08-30T17:57:26.084Z,101730.59
2022-08-30T17:59:54.518Z,101728.03
2022-08-30T18:02:23.049Z,101734.69
2022-08-30T18:04:59.254Z,101729.81
2022-08-30T18:07:28.053Z,101731.81
2022-08-30T18:16:27.039Z,101726.94
2022-08-30T18:21:40.477Z,101716.56
2022-08-30T18:24:10.679Z,101716.16
2022-08-30T18:28:01.520Z,101720.75
2022-08-30T18:30:39.937Z,101718.78
2022-08-30T18:33:29.314Z,101719.78
2022-08-30T18:36:32.516Z,101713.69
2022-08-30T18:39:04.370Z,101722.63
2022-08-30T18:41:32.696Z,101714.22
2022-08-30T18:44:17.410Z,101715.94
2022-08-30T18:47:27.153Z,101714.50
2022-08-30T18:50:10.887Z,101714.91
2022-08-30T18:53:00.453Z,101714.50
2022-08-30T18:55:32.548Z,101712.34
2022-08-30T19:01:29.177Z,101708.34
2022-08-30T19:10:08.266Z,101705.09
2022-08-30T19:12:43.565Z,101703.25
2022-08-30T19:15:13.252Z,101706.81
2022-08-30T19:17:44.825Z,101705.09
2022-08-30T19:20:39.440Z,101691.00
2022-08-30T19:23:10.446Z,101692.09
2022-08-30T19:25:41.589Z,101697.19
2022-08-30T19:28:18.586Z,101690.25
2022-08-30T19:32:00.440Z,101693.09
2022-08-30T19:34:30.854Z,101682.28
2022-08-30T19:37:02.328Z,101676.16
2022-08-30T19:42:01.874Z,101654.06
2022-08-30T19:44:33.369Z,101653.34
2022-08-30T19:47:02.773Z,101650.00
2022-08-30T19:49:30.997Z,101639.03
2022-08-30T19:52:00.063Z,101636.59
2022-08-30T19:54:29.078Z,101637.84
2022-08-30T19:56:58.596Z,101637.13
2022-08-30T19:59:31.722Z,101633.97
2022-08-30T20:02:00.240Z,101637.06
2022-08-30T20:04:34.398Z,101634.28
2022-08-30T20:07:02.635Z,101631.97
2022-08-30T20:09:31.233Z,101630.13
2022-08-30T20:12:02.639Z,101630.81
2022-08-30T20:14:33.614Z,101634.06
2022-08-30T20:17:02.277Z,101640.06
2022-08-30T20:19:34.536Z,101628.16
2022-08-30T20:22:07.902Z,101634.75
2022-08-30T20:24:37.853Z,101618.69
2022-08-30T20:27:08.199Z,101619.06
2022-08-30T20:29:38.686Z,101625.88
2022-08-30T20:32:07.051Z,101616.19
2022-08-30T20:34:35.406Z,101621.59
2022-08-30T20:37:03.683Z,101617.34
2022-08-30T20:39:31.910Z,101616.50
2022-08-30T20:42:33.420Z,101616.66
2022-08-30T20:45:02.270Z,101623.63
2022-08-30T20:47:30.910Z,101620.78
2022-08-30T20:50:32.778Z,101616.19
2022-08-30T20:53:06.208Z,101618.28
2022-08-30T20:55:34.566Z,101615.28
2022-08-30T20:58:02.768Z,101615.19
2022-08-30T21:00:31.404Z,101607.31
2022-08-30T21:03:00.309Z,101597.53
2022-08-30T21:05:31.770Z,101606.06
2022-08-30T21:08:00.830Z,101589.06
2022-08-30T21:10:38.398Z,101591.28
2022-08-30T21:13:06.628Z,101592.81
2022-08-30T21:15:37.737Z,101598.91
2022-08-30T21:18:06.784Z,101599.47
2022-08-30T21:20:35.198Z,101597.94
2022-08-30T21:23:03.601Z,101601.88
2022-08-30T21:25:40.403Z,101594.47
2022-08-30T21:28:33.018Z,101594.50
2022-08-30T21:31:06.740Z,101594.03
2022-08-30T21:33:35.036Z,101593.88
2022-08-30T21:36:22.805Z,101594.72
2022-08-30T21:39:00.612Z,101593.00
2022-08-30T21:41:38.169Z,101590.63
2022-08-30T21:44:10.951Z,101585.84
2022-08-30T21:46:42.151Z,101586.19
2022-08-30T21:49:13.021Z,101577.16
2022-08-30T21:51:44.564Z,101575.59
2022-08-30T21:54:32.390Z,101570.88
2022-08-30T21:57:20.589Z,101567.31
2022-08-30T22:00:01.427Z,101561.22
2022-08-30T22:02:33.453Z,101560.03
2022-08-30T22:05:02.078Z,101557.50
2022-08-30T22:07:33.904Z,101551.56
2022-08-30T22:10:06.698Z,101561.00
2022-08-30T22:12:35.450Z,101555.59
2022-08-30T22:15:14.697Z,101553.38
2022-08-30T22:17:42.985Z,101552.81
2022-08-30T22:20:15.117Z,101546.56
2022-08-30T22:22:56.033Z,101551.16
2022-08-30T22:25:25.758Z,101552.63
2022-08-30T22:27:55.134Z,101550.38
2022-08-30T22:30:23.468Z,101555.56
2022-08-30T22:32:55.391Z,101547.44
2022-08-30T22:35:26.701Z,101545.72
2022-08-30T22:39:10.521Z,101543.50
2022-08-30T23:20:51.340Z,101532.50
2022-08-30T23:27:12.319Z,101536.03
2022-08-30T23:34:14.402Z,101542.88
2022-08-30T23:37:52.152Z,101527.13
2022-08-30T23:41:13.656Z,101529.06
